sensor_id;sensor_type;location;lat;lon;timestamp;P1;durP1;ratioP1;P2;durP2;ratioP2
78960;SDS011;68362;45.970;12.646;2023-05-07T00:00:44;6.88;;;6.18;;
78960;SDS011;68362;45.970;12.646;2023-05-07T00:01:56;7.47;;;5.85;;
78960;SDS011;68362;45.970;12.646;2023-05-07T00:02:58;6.80;;;6.15;;
78960;SDS011;68362;45.970;12.646;2023-05-07T00:04:01;7.57;;;6.40;;
78960;SDS011;68362;45.970;12.646;2023-05-07T00:05:04;7.13;;;5.75;;
78960;SDS011;68362;45.970;12.646;2023-05-07T00:06:06;5.85;;;5.20;;
78960;SDS011;68362;45.970;12.646;2023-05-07T00:07:08;13.52;;;6.43;;
78960;SDS011;68362;45.970;12.646;2023-05-07T00:08:10;6.10;;;5.50;;
78960;SDS011;68362;45.970;12.646;2023-05-07T00:09:12;7.10;;;5.63;;
78960;SDS011;68362;45.970;12.646;2023-05-07T00:10:15;5.85;;;5.05;;
78960;SDS011;68362;45.970;12.646;2023-05-07T00:11:17;7.47;;;5.45;;
78960;SDS011;68362;45.970;12.646;2023-05-07T00:12:19;6.55;;;5.50;;
78960;SDS011;68362;45.970;12.646;2023-05-07T00:13:21;6.30;;;5.68;;
78960;SDS011;68362;45.970;12.646;2023-05-07T00:14:23;6.53;;;5.72;;
78960;SDS011;68362;45.970;12.646;2023-05-07T00:15:26;6.75;;;5.97;;
78960;SDS011;68362;45.970;12.646;2023-05-07T00:16:28;8.18;;;6.22;;
78960;SDS011;68362;45.970;12.646;2023-05-07T00:17:30;6.53;;;5.32;;
78960;SDS011;68362;45.970;12.646;2023-05-07T00:18:32;7.22;;;5.25;;
78960;SDS011;68362;45.970;12.646;2023-05-07T00:19:34;8.32;;;6.70;;
78960;SDS011;68362;45.970;12.646;2023-05-07T00:20:36;7.72;;;6.18;;
78960;SDS011;68362;45.970;12.646;2023-05-07T00:21:38;6.75;;;6.03;;
78960;SDS011;68362;45.970;12.646;2023-05-07T00:22:40;7.75;;;5.90;;
78960;SDS011;68362;45.970;12.646;2023-05-07T00:23:42;6.72;;;5.97;;
78960;SDS011;68362;45.970;12.646;2023-05-07T00:24:44;6.05;;;5.35;;
78960;SDS011;68362;45.970;12.646;2023-05-07T00:25:46;7.43;;;5.90;;
78960;SDS011;68362;45.970;12.646;2023-05-07T00:26:48;6.05;;;4.95;;
78960;SDS011;68362;45.970;12.646;2023-05-07T00:27:51;9.30;;;5.90;;
78960;SDS011;68362;45.970;12.646;2023-05-07T00:28:53;6.60;;;5.80;;
78960;SDS011;68362;45.970;12.646;2023-05-07T00:29:55;7.18;;;5.95;;
78960;SDS011;68362;45.970;12.646;2023-05-07T00:30:57;7.68;;;5.32;;
78960;SDS011;68362;45.970;12.646;2023-05-07T00:31:59;9.55;;;7.00;;
78960;SDS011;68362;45.970;12.646;2023-05-07T00:33:01;7.15;;;6.13;;
78960;SDS011;68362;45.970;12.646;2023-05-07T00:34:03;7.25;;;4.97;;
78960;SDS011;68362;45.970;12.646;2023-05-07T00:35:06;6.18;;;5.57;;
78960;SDS011;68362;45.970;12.646;2023-05-07T00:36:09;6.07;;;5.00;;
78960;SDS011;68362;45.970;12.646;2023-05-07T00:37:11;6.28;;;5.18;;
78960;SDS011;68362;45.970;12.646;2023-05-07T00:38:13;8.35;;;5.47;;
78960;SDS011;68362;45.970;12.646;2023-05-07T00:39:15;6.85;;;5.43;;
78960;SDS011;68362;45.970;12.646;2023-05-07T00:40:18;8.52;;;6.10;;
78960;SDS011;68362;45.970;12.646;2023-05-07T00:41:20;5.93;;;5.32;;
78960;SDS011;68362;45.970;12.646;2023-05-07T00:42:22;7.82;;;5.13;;
78960;SDS011;68362;45.970;12.646;2023-05-07T00:43:24;7.20;;;5.25;;
78960;SDS011;68362;45.970;12.646;2023-05-07T00:44:26;8.38;;;6.03;;
78960;SDS011;68362;45.970;12.646;2023-05-07T00:45:30;13.45;;;5.93;;
78960;SDS011;68362;45.970;12.646;2023-05-07T00:46:32;6.72;;;5.75;;
78960;SDS011;68362;45.970;12.646;2023-05-07T00:47:34;9.43;;;5.75;;
78960;SDS011;68362;45.970;12.646;2023-05-07T00:48:37;6.25;;;5.20;;
78960;SDS011;68362;45.970;12.646;2023-05-07T00:49:39;6.57;;;5.88;;
78960;SDS011;68362;45.970;12.646;2023-05-07T00:50:43;7.47;;;5.68;;
78960;SDS011;68362;45.970;12.646;2023-05-07T00:51:47;7.10;;;6.25;;
78960;SDS011;68362;45.970;12.646;2023-05-07T00:52:49;9.48;;;6.20;;
78960;SDS011;68362;45.970;12.646;2023-05-07T00:53:51;5.95;;;5.35;;
78960;SDS011;68362;45.970;12.646;2023-05-07T00:54:53;8.10;;;5.80;;
78960;SDS011;68362;45.970;12.646;2023-05-07T00:56:59;7.50;;;6.10;;
78960;SDS011;68362;45.970;12.646;2023-05-07T00:58:00;6.55;;;5.75;;
78960;SDS011;68362;45.970;12.646;2023-05-07T00:59:02;6.47;;;5.35;;
78960;SDS011;68362;45.970;12.646;2023-05-07T01:00:05;8.15;;;5.40;;
78960;SDS011;68362;45.970;12.646;2023-05-07T01:01:10;6.70;;;5.55;;
78960;SDS011;68362;45.970;12.646;2023-05-07T01:02:13;7.45;;;5.05;;
78960;SDS011;68362;45.970;12.646;2023-05-07T01:03:15;6.45;;;5.35;;
78960;SDS011;68362;45.970;12.646;2023-05-07T01:04:17;6.15;;;5.55;;
78960;SDS011;68362;45.970;12.646;2023-05-07T01:06:24;6.18;;;5.00;;
78960;SDS011;68362;45.970;12.646;2023-05-07T01:07:29;7.75;;;5.78;;
78960;SDS011;68362;45.970;12.646;2023-05-07T01:08:32;6.07;;;5.47;;
78960;SDS011;68362;45.970;12.646;2023-05-07T01:09:34;7.07;;;5.47;;
78960;SDS011;68362;45.970;12.646;2023-05-07T01:10:38;6.65;;;5.80;;
78960;SDS011;68362;45.970;12.646;2023-05-07T01:11:44;6.50;;;5.22;;
78960;SDS011;68362;45.970;12.646;2023-05-07T01:12:46;6.70;;;5.38;;
78960;SDS011;68362;45.970;12.646;2023-05-07T01:13:50;7.28;;;5.57;;
78960;SDS011;68362;45.970;12.646;2023-05-07T01:14:52;7.20;;;5.95;;
78960;SDS011;68362;45.970;12.646;2023-05-07T01:15:54;6.35;;;5.25;;
78960;SDS011;68362;45.970;12.646;2023-05-07T01:16:56;6.95;;;4.93;;
78960;SDS011;68362;45.970;12.646;2023-05-07T01:17:59;12.05;;;5.97;;
78960;SDS011;68362;45.970;12.646;2023-05-07T01:19:01;6.03;;;5.03;;
78960;SDS011;68362;45.970;12.646;2023-05-07T01:20:06;6.45;;;5.65;;
78960;SDS011;68362;45.970;12.646;2023-05-07T01:21:10;8.00;;;5.72;;
78960;SDS011;68362;45.970;12.646;2023-05-07T01:22:13;6.68;;;5.45;;
78960;SDS011;68362;45.970;12.646;2023-05-07T01:23:18;7.28;;;5.72;;
78960;SDS011;68362;45.970;12.646;2023-05-07T01:24:20;7.53;;;5.38;;
78960;SDS011;68362;45.970;12.646;2023-05-07T01:25:22;6.43;;;5.20;;
78960;SDS011;68362;45.970;12.646;2023-05-07T01:26:25;6.63;;;5.55;;
78960;SDS011;68362;45.970;12.646;2023-05-07T01:27:27;6.68;;;5.63;;
78960;SDS011;68362;45.970;12.646;2023-05-07T01:28:29;6.32;;;5.40;;
78960;SDS011;68362;45.970;12.646;2023-05-07T01:29:31;7.18;;;5.78;;
78960;SDS011;68362;45.970;12.646;2023-05-07T01:30:33;8.57;;;5.88;;
78960;SDS011;68362;45.970;12.646;2023-05-07T01:31:37;6.95;;;5.65;;
78960;SDS011;68362;45.970;12.646;2023-05-07T01:33:47;6.88;;;4.95;;
78960;SDS011;68362;45.970;12.646;2023-05-07T01:34:51;6.70;;;5.75;;
78960;SDS011;68362;45.970;12.646;2023-05-07T01:35:55;6.18;;;5.57;;
78960;SDS011;68362;45.970;12.646;2023-05-07T01:36:57;7.10;;;5.32;;
78960;SDS011;68362;45.970;12.646;2023-05-07T01:38:01;5.80;;;4.75;;
78960;SDS011;68362;45.970;12.646;2023-05-07T01:39:06;9.57;;;6.07;;
78960;SDS011;68362;45.970;12.646;2023-05-07T01:40:10;7.25;;;5.45;;
78960;SDS011;68362;45.970;12.646;2023-05-07T01:41:13;7.03;;;5.72;;
78960;SDS011;68362;45.970;12.646;2023-05-07T01:42:15;6.20;;;4.97;;
78960;SDS011;68362;45.970;12.646;2023-05-07T01:43:17;6.00;;;5.40;;
78960;SDS011;68362;45.970;12.646;2023-05-07T01:44:19;6.40;;;5.38;;
78960;SDS011;68362;45.970;12.646;2023-05-07T01:45:21;6.60;;;5.13;;
78960;SDS011;68362;45.970;12.646;2023-05-07T01:46:23;8.32;;;5.25;;
78960;SDS011;68362;45.970;12.646;2023-05-07T01:47:27;5.68;;;4.95;;
78960;SDS011;68362;45.970;12.646;2023-05-07T01:48:30;6.75;;;5.32;;
78960;SDS011;68362;45.970;12.646;2023-05-07T01:49:32;9.30;;;5.55;;
78960;SDS011;68362;45.970;12.646;2023-05-07T01:50:34;6.45;;;5.15;;
78960;SDS011;68362;45.970;12.646;2023-05-07T01:51:37;8.68;;;5.65;;
78960;SDS011;68362;45.970;12.646;2023-05-07T01:52:39;7.13;;;5.68;;
78960;SDS011;68362;45.970;12.646;2023-05-07T01:53:41;6.55;;;5.15;;
78960;SDS011;68362;45.970;12.646;2023-05-07T01:54:43;7.43;;;5.63;;
78960;SDS011;68362;45.970;12.646;2023-05-07T01:55:45;8.60;;;5.35;;
78960;SDS011;68362;45.970;12.646;2023-05-07T01:56:47;7.95;;;5.45;;
78960;SDS011;68362;45.970;12.646;2023-05-07T01:57:50;7.90;;;5.93;;
78960;SDS011;68362;45.970;12.646;2023-05-07T01:58:52;6.05;;;5.18;;
78960;SDS011;68362;45.970;12.646;2023-05-07T01:59:55;6.30;;;4.72;;
78960;SDS011;68362;45.970;12.646;2023-05-07T02:00:57;5.72;;;4.88;;
78960;SDS011;68362;45.970;12.646;2023-05-07T02:01:59;6.97;;;5.97;;
78960;SDS011;68362;45.970;12.646;2023-05-07T02:03:01;7.78;;;5.40;;
78960;SDS011;68362;45.970;12.646;2023-05-07T02:04:03;6.00;;;5.40;;
78960;SDS011;68362;45.970;12.646;2023-05-07T02:05:05;7.75;;;5.53;;
78960;SDS011;68362;45.970;12.646;2023-05-07T02:06:08;8.75;;;5.85;;
78960;SDS011;68362;45.970;12.646;2023-05-07T02:07:10;6.50;;;5.38;;
78960;SDS011;68362;45.970;12.646;2023-05-07T02:08:12;6.72;;;5.22;;
78960;SDS011;68362;45.970;12.646;2023-05-07T02:09:14;7.78;;;5.68;;
78960;SDS011;68362;45.970;12.646;2023-05-07T02:10:19;5.93;;;5.20;;
78960;SDS011;68362;45.970;12.646;2023-05-07T02:11:21;11.38;;;6.20;;
78960;SDS011;68362;45.970;12.646;2023-05-07T02:12:23;7.05;;;5.82;;
78960;SDS011;68362;45.970;12.646;2023-05-07T02:13:26;7.53;;;5.47;;
78960;SDS011;68362;45.970;12.646;2023-05-07T02:14:31;5.95;;;5.20;;
78960;SDS011;68362;45.970;12.646;2023-05-07T02:15:33;6.07;;;5.18;;
78960;SDS011;68362;45.970;12.646;2023-05-07T02:16:35;7.28;;;5.50;;
78960;SDS011;68362;45.970;12.646;2023-05-07T02:17:57;8.60;;;5.65;;
78960;SDS011;68362;45.970;12.646;2023-05-07T02:19:01;7.00;;;5.80;;
78960;SDS011;68362;45.970;12.646;2023-05-07T02:20:03;7.43;;;6.03;;
78960;SDS011;68362;45.970;12.646;2023-05-07T02:22:09;6.57;;;5.97;;
78960;SDS011;68362;45.970;12.646;2023-05-07T02:23:12;7.75;;;6.63;;
78960;SDS011;68362;45.970;12.646;2023-05-07T02:24:14;7.30;;;5.85;;
78960;SDS011;68362;45.970;12.646;2023-05-07T02:26:18;6.60;;;5.90;;
78960;SDS011;68362;45.970;12.646;2023-05-07T02:27:20;7.82;;;5.55;;
78960;SDS011;68362;45.970;12.646;2023-05-07T02:28:22;7.40;;;5.53;;
78960;SDS011;68362;45.970;12.646;2023-05-07T02:29:24;5.95;;;4.40;;
78960;SDS011;68362;45.970;12.646;2023-05-07T02:30:26;6.30;;;5.45;;
78960;SDS011;68362;45.970;12.646;2023-05-07T02:31:28;5.68;;;5.00;;
78960;SDS011;68362;45.970;12.646;2023-05-07T02:32:30;6.93;;;5.07;;
78960;SDS011;68362;45.970;12.646;2023-05-07T02:33:33;7.07;;;4.95;;
78960;SDS011;68362;45.970;12.646;2023-05-07T02:34:36;7.20;;;5.18;;
78960;SDS011;68362;45.970;12.646;2023-05-07T02:35:38;8.23;;;5.55;;
78960;SDS011;68362;45.970;12.646;2023-05-07T02:36:40;5.88;;;4.93;;
78960;SDS011;68362;45.970;12.646;2023-05-07T02:37:42;6.65;;;4.60;;
78960;SDS011;68362;45.970;12.646;2023-05-07T02:38:44;5.20;;;4.25;;
78960;SDS011;68362;45.970;12.646;2023-05-07T02:39:46;5.63;;;4.72;;
78960;SDS011;68362;45.970;12.646;2023-05-07T02:40:48;6.07;;;5.28;;
78960;SDS011;68362;45.970;12.646;2023-05-07T02:41:51;5.90;;;5.18;;
78960;SDS011;68362;45.970;12.646;2023-05-07T02:42:53;5.93;;;4.78;;
78960;SDS011;68362;45.970;12.646;2023-05-07T02:43:55;5.35;;;4.70;;
78960;SDS011;68362;45.970;12.646;2023-05-07T02:44:57;5.28;;;4.78;;
78960;SDS011;68362;45.970;12.646;2023-05-07T02:46:05;5.45;;;4.88;;
78960;SDS011;68362;45.970;12.646;2023-05-07T02:47:09;8.27;;;5.35;;
78960;SDS011;68362;45.970;12.646;2023-05-07T02:48:11;5.93;;;4.88;;
78960;SDS011;68362;45.970;12.646;2023-05-07T02:49:13;7.70;;;5.28;;
78960;SDS011;68362;45.970;12.646;2023-05-07T02:50:15;7.63;;;4.85;;
78960;SDS011;68362;45.970;12.646;2023-05-07T02:51:19;7.13;;;5.20;;
78960;SDS011;68362;45.970;12.646;2023-05-07T02:52:25;5.88;;;5.13;;
78960;SDS011;68362;45.970;12.646;2023-05-07T02:53:27;8.00;;;4.97;;
78960;SDS011;68362;45.970;12.646;2023-05-07T02:54:31;6.90;;;5.03;;
78960;SDS011;68362;45.970;12.646;2023-05-07T02:55:33;6.78;;;4.90;;
78960;SDS011;68362;45.970;12.646;2023-05-07T02:56:35;6.50;;;5.30;;
78960;SDS011;68362;45.970;12.646;2023-05-07T02:57:37;6.05;;;4.88;;
78960;SDS011;68362;45.970;12.646;2023-05-07T02:58:39;6.20;;;5.22;;
78960;SDS011;68362;45.970;12.646;2023-05-07T02:59:42;6.18;;;5.25;;
78960;SDS011;68362;45.970;12.646;2023-05-07T03:00:44;6.78;;;5.20;;
78960;SDS011;68362;45.970;12.646;2023-05-07T03:01:46;7.93;;;5.68;;
78960;SDS011;68362;45.970;12.646;2023-05-07T03:02:48;7.00;;;5.32;;
78960;SDS011;68362;45.970;12.646;2023-05-07T03:03:50;7.07;;;5.53;;
78960;SDS011;68362;45.970;12.646;2023-05-07T03:04:52;8.32;;;4.85;;
78960;SDS011;68362;45.970;12.646;2023-05-07T03:05:54;5.68;;;4.88;;
78960;SDS011;68362;45.970;12.646;2023-05-07T03:06:57;7.28;;;5.00;;
78960;SDS011;68362;45.970;12.646;2023-05-07T03:07:59;5.50;;;4.63;;
78960;SDS011;68362;45.970;12.646;2023-05-07T03:09:01;6.18;;;5.00;;
78960;SDS011;68362;45.970;12.646;2023-05-07T03:10:04;5.97;;;5.28;;
78960;SDS011;68362;45.970;12.646;2023-05-07T03:11:07;7.80;;;5.53;;
78960;SDS011;68362;45.970;12.646;2023-05-07T03:12:09;7.00;;;5.10;;
78960;SDS011;68362;45.970;12.646;2023-05-07T03:13:11;6.22;;;5.47;;
78960;SDS011;68362;45.970;12.646;2023-05-07T03:14:13;7.10;;;5.13;;
78960;SDS011;68362;45.970;12.646;2023-05-07T03:15:15;5.50;;;4.80;;
78960;SDS011;68362;45.970;12.646;2023-05-07T03:16:18;6.47;;;5.80;;
78960;SDS011;68362;45.970;12.646;2023-05-07T03:17:20;5.72;;;4.93;;
78960;SDS011;68362;45.970;12.646;2023-05-07T03:18:22;7.25;;;5.15;;
78960;SDS011;68362;45.970;12.646;2023-05-07T03:19:24;7.10;;;5.07;;
78960;SDS011;68362;45.970;12.646;2023-05-07T03:20:27;5.72;;;5.05;;
78960;SDS011;68362;45.970;12.646;2023-05-07T03:21:29;7.85;;;5.00;;
78960;SDS011;68362;45.970;12.646;2023-05-07T03:22:32;6.45;;;4.70;;
78960;SDS011;68362;45.970;12.646;2023-05-07T03:23:34;6.90;;;4.80;;
78960;SDS011;68362;45.970;12.646;2023-05-07T03:24:36;6.38;;;4.82;;
78960;SDS011;68362;45.970;12.646;2023-05-07T03:25:38;6.40;;;4.85;;
78960;SDS011;68362;45.970;12.646;2023-05-07T03:26:40;6.78;;;5.85;;
78960;SDS011;68362;45.970;12.646;2023-05-07T03:27:42;7.50;;;5.63;;
78960;SDS011;68362;45.970;12.646;2023-05-07T03:28:45;7.72;;;4.40;;
78960;SDS011;68362;45.970;12.646;2023-05-07T03:29:47;6.07;;;4.78;;
78960;SDS011;68362;45.970;12.646;2023-05-07T03:30:49;5.55;;;4.95;;
78960;SDS011;68362;45.970;12.646;2023-05-07T03:31:51;5.68;;;4.70;;
78960;SDS011;68362;45.970;12.646;2023-05-07T03:32:54;5.22;;;4.57;;
78960;SDS011;68362;45.970;12.646;2023-05-07T03:33:56;8.85;;;5.50;;
78960;SDS011;68362;45.970;12.646;2023-05-07T03:34:59;6.30;;;5.70;;
78960;SDS011;68362;45.970;12.646;2023-05-07T03:36:01;6.88;;;5.32;;
78960;SDS011;68362;45.970;12.646;2023-05-07T03:37:03;5.90;;;5.30;;
78960;SDS011;68362;45.970;12.646;2023-05-07T03:38:05;6.00;;;5.00;;
78960;SDS011;68362;45.970;12.646;2023-05-07T03:39:07;6.60;;;5.15;;
78960;SDS011;68362;45.970;12.646;2023-05-07T03:40:10;6.60;;;5.22;;
78960;SDS011;68362;45.970;12.646;2023-05-07T03:41:14;5.72;;;5.13;;
78960;SDS011;68362;45.970;12.646;2023-05-07T03:42:16;6.05;;;5.45;;
78960;SDS011;68362;45.970;12.646;2023-05-07T03:43:18;6.75;;;4.97;;
78960;SDS011;68362;45.970;12.646;2023-05-07T03:44:20;6.82;;;5.03;;
78960;SDS011;68362;45.970;12.646;2023-05-07T03:45:22;5.10;;;4.40;;
78960;SDS011;68362;45.970;12.646;2023-05-07T03:46:24;6.07;;;5.45;;
78960;SDS011;68362;45.970;12.646;2023-05-07T03:47:28;7.18;;;5.32;;
78960;SDS011;68362;45.970;12.646;2023-05-07T03:48:30;11.30;;;6.13;;
78960;SDS011;68362;45.970;12.646;2023-05-07T03:49:32;6.90;;;5.30;;
78960;SDS011;68362;45.970;12.646;2023-05-07T03:50:34;5.70;;;4.85;;
78960;SDS011;68362;45.970;12.646;2023-05-07T03:51:36;7.15;;;5.43;;
78960;SDS011;68362;45.970;12.646;2023-05-07T03:52:38;6.15;;;5.25;;
78960;SDS011;68362;45.970;12.646;2023-05-07T03:53:40;8.48;;;5.13;;
78960;SDS011;68362;45.970;12.646;2023-05-07T03:54:42;6.90;;;5.50;;
78960;SDS011;68362;45.970;12.646;2023-05-07T03:55:44;5.63;;;4.78;;
78960;SDS011;68362;45.970;12.646;2023-05-07T03:56:46;6.22;;;5.07;;
78960;SDS011;68362;45.970;12.646;2023-05-07T03:57:48;5.70;;;4.95;;
78960;SDS011;68362;45.970;12.646;2023-05-07T03:58:50;5.95;;;5.10;;
78960;SDS011;68362;45.970;12.646;2023-05-07T03:59:52;5.68;;;5.07;;
78960;SDS011;68362;45.970;12.646;2023-05-07T04:00:54;8.27;;;5.13;;
78960;SDS011;68362;45.970;12.646;2023-05-07T04:01:57;5.63;;;5.10;;
78960;SDS011;68362;45.970;12.646;2023-05-07T04:04:01;7.85;;;5.13;;
78960;SDS011;68362;45.970;12.646;2023-05-07T04:05:05;5.40;;;4.82;;
78960;SDS011;68362;45.970;12.646;2023-05-07T04:06:07;7.25;;;5.22;;
78960;SDS011;68362;45.970;12.646;2023-05-07T04:07:09;7.47;;;5.07;;
78960;SDS011;68362;45.970;12.646;2023-05-07T04:08:11;7.82;;;6.18;;
78960;SDS011;68362;45.970;12.646;2023-05-07T04:09:13;6.45;;;5.13;;
78960;SDS011;68362;45.970;12.646;2023-05-07T04:10:15;7.65;;;5.10;;
78960;SDS011;68362;45.970;12.646;2023-05-07T04:11:17;5.65;;;5.03;;
78960;SDS011;68362;45.970;12.646;2023-05-07T04:12:19;5.60;;;5.10;;
78960;SDS011;68362;45.970;12.646;2023-05-07T04:13:22;6.22;;;5.25;;
78960;SDS011;68362;45.970;12.646;2023-05-07T04:14:24;6.68;;;4.93;;
78960;SDS011;68362;45.970;12.646;2023-05-07T04:15:26;5.70;;;5.15;;
78960;SDS011;68362;45.970;12.646;2023-05-07T04:16:28;6.35;;;5.03;;
78960;SDS011;68362;45.970;12.646;2023-05-07T04:17:30;9.55;;;5.63;;
78960;SDS011;68362;45.970;12.646;2023-05-07T04:18:32;5.65;;;5.03;;
78960;SDS011;68362;45.970;12.646;2023-05-07T04:19:34;6.28;;;4.78;;
78960;SDS011;68362;45.970;12.646;2023-05-07T04:20:36;5.40;;;4.70;;
78960;SDS011;68362;45.970;12.646;2023-05-07T04:21:38;7.85;;;5.75;;
78960;SDS011;68362;45.970;12.646;2023-05-07T04:22:41;6.35;;;4.85;;
78960;SDS011;68362;45.970;12.646;2023-05-07T04:23:43;6.70;;;5.57;;
78960;SDS011;68362;45.970;12.646;2023-05-07T04:24:45;6.80;;;5.85;;
78960;SDS011;68362;45.970;12.646;2023-05-07T04:25:47;6.18;;;5.03;;
78960;SDS011;68362;45.970;12.646;2023-05-07T04:26:49;8.05;;;5.18;;
78960;SDS011;68362;45.970;12.646;2023-05-07T04:27:52;6.93;;;5.25;;
78960;SDS011;68362;45.970;12.646;2023-05-07T04:28:57;9.70;;;5.25;;
78960;SDS011;68362;45.970;12.646;2023-05-07T04:30:01;6.45;;;5.05;;
78960;SDS011;68362;45.970;12.646;2023-05-07T04:31:03;7.40;;;6.03;;
78960;SDS011;68362;45.970;12.646;2023-05-07T04:32:05;6.68;;;4.93;;
78960;SDS011;68362;45.970;12.646;2023-05-07T04:33:07;6.85;;;5.45;;
78960;SDS011;68362;45.970;12.646;2023-05-07T04:34:10;6.55;;;5.47;;
78960;SDS011;68362;45.970;12.646;2023-05-07T04:36:14;6.63;;;5.30;;
78960;SDS011;68362;45.970;12.646;2023-05-07T04:37:16;9.63;;;5.22;;
78960;SDS011;68362;45.970;12.646;2023-05-07T04:38:19;7.05;;;5.85;;
78960;SDS011;68362;45.970;12.646;2023-05-07T04:39:21;6.95;;;5.60;;
78960;SDS011;68362;45.970;12.646;2023-05-07T04:40:23;10.27;;;5.25;;
78960;SDS011;68362;45.970;12.646;2023-05-07T04:41:25;6.68;;;5.22;;
78960;SDS011;68362;45.970;12.646;2023-05-07T04:42:27;6.72;;;4.97;;
78960;SDS011;68362;45.970;12.646;2023-05-07T04:43:29;7.40;;;5.78;;
78960;SDS011;68362;45.970;12.646;2023-05-07T04:44:31;6.80;;;5.90;;
78960;SDS011;68362;45.970;12.646;2023-05-07T04:45:34;6.85;;;5.60;;
78960;SDS011;68362;45.970;12.646;2023-05-07T04:46:37;5.47;;;4.55;;
78960;SDS011;68362;45.970;12.646;2023-05-07T04:47:39;5.78;;;4.78;;
78960;SDS011;68362;45.970;12.646;2023-05-07T04:48:41;5.63;;;4.57;;
78960;SDS011;68362;45.970;12.646;2023-05-07T04:49:44;5.75;;;4.95;;
78960;SDS011;68362;45.970;12.646;2023-05-07T04:50:49;7.28;;;5.60;;
78960;SDS011;68362;45.970;12.646;2023-05-07T04:51:52;6.28;;;5.10;;
78960;SDS011;68362;45.970;12.646;2023-05-07T04:52:54;5.07;;;4.55;;
78960;SDS011;68362;45.970;12.646;2023-05-07T04:53:56;5.47;;;4.78;;
78960;SDS011;68362;45.970;12.646;2023-05-07T04:55:01;5.88;;;4.97;;
78960;SDS011;68362;45.970;12.646;2023-05-07T04:56:03;7.32;;;5.03;;
78960;SDS011;68362;45.970;12.646;2023-05-07T04:57:05;6.45;;;5.03;;
78960;SDS011;68362;45.970;12.646;2023-05-07T04:58:08;7.70;;;5.40;;
78960;SDS011;68362;45.970;12.646;2023-05-07T05:00:13;6.35;;;5.10;;
78960;SDS011;68362;45.970;12.646;2023-05-07T05:01:18;5.88;;;4.32;;
78960;SDS011;68362;45.970;12.646;2023-05-07T05:02:20;5.47;;;4.93;;
78960;SDS011;68362;45.970;12.646;2023-05-07T05:03:22;4.85;;;4.30;;
78960;SDS011;68362;45.970;12.646;2023-05-07T05:04:24;5.90;;;4.22;;
78960;SDS011;68362;45.970;12.646;2023-05-07T05:05:26;4.97;;;4.45;;
78960;SDS011;68362;45.970;12.646;2023-05-07T05:06:28;6.68;;;5.20;;
78960;SDS011;68362;45.970;12.646;2023-05-07T05:07:30;5.57;;;4.68;;
78960;SDS011;68362;45.970;12.646;2023-05-07T05:08:33;5.57;;;4.60;;
78960;SDS011;68362;45.970;12.646;2023-05-07T05:09:35;7.15;;;4.68;;
78960;SDS011;68362;45.970;12.646;2023-05-07T05:10:37;6.60;;;4.85;;
78960;SDS011;68362;45.970;12.646;2023-05-07T05:11:39;5.40;;;4.68;;
78960;SDS011;68362;45.970;12.646;2023-05-07T05:12:41;6.05;;;4.47;;
78960;SDS011;68362;45.970;12.646;2023-05-07T05:13:43;6.28;;;4.72;;
78960;SDS011;68362;45.970;12.646;2023-05-07T05:14:45;5.40;;;4.40;;
78960;SDS011;68362;45.970;12.646;2023-05-07T05:15:48;5.30;;;4.80;;
78960;SDS011;68362;45.970;12.646;2023-05-07T05:16:49;6.32;;;4.55;;
78960;SDS011;68362;45.970;12.646;2023-05-07T05:17:51;5.97;;;4.75;;
78960;SDS011;68362;45.970;12.646;2023-05-07T05:18:53;6.10;;;4.70;;
78960;SDS011;68362;45.970;12.646;2023-05-07T05:20:58;5.82;;;4.57;;
78960;SDS011;68362;45.970;12.646;2023-05-07T05:22:00;6.75;;;4.93;;
78960;SDS011;68362;45.970;12.646;2023-05-07T05:23:05;5.10;;;4.60;;
78960;SDS011;68362;45.970;12.646;2023-05-07T05:24:08;6.28;;;5.32;;
78960;SDS011;68362;45.970;12.646;2023-05-07T05:25:10;5.78;;;4.43;;
78960;SDS011;68362;45.970;12.646;2023-05-07T05:26:11;5.82;;;4.90;;
78960;SDS011;68362;45.970;12.646;2023-05-07T05:27:13;7.32;;;5.00;;
78960;SDS011;68362;45.970;12.646;2023-05-07T05:28:16;5.65;;;4.88;;
78960;SDS011;68362;45.970;12.646;2023-05-07T05:29:18;5.53;;;4.57;;
78960;SDS011;68362;45.970;12.646;2023-05-07T05:30:20;6.03;;;4.82;;
78960;SDS011;68362;45.970;12.646;2023-05-07T05:31:23;5.65;;;5.10;;
78960;SDS011;68362;45.970;12.646;2023-05-07T05:32:26;5.55;;;4.95;;
78960;SDS011;68362;45.970;12.646;2023-05-07T05:33:28;6.30;;;4.55;;
78960;SDS011;68362;45.970;12.646;2023-05-07T05:34:29;5.93;;;5.03;;
78960;SDS011;68362;45.970;12.646;2023-05-07T05:35:31;5.72;;;4.40;;
78960;SDS011;68362;45.970;12.646;2023-05-07T05:36:34;5.45;;;3.95;;
78960;SDS011;68362;45.970;12.646;2023-05-07T05:37:36;5.15;;;4.25;;
78960;SDS011;68362;45.970;12.646;2023-05-07T05:38:38;6.10;;;4.47;;
78960;SDS011;68362;45.970;12.646;2023-05-07T05:39:41;5.47;;;4.47;;
78960;SDS011;68362;45.970;12.646;2023-05-07T05:40:44;4.72;;;4.22;;
78960;SDS011;68362;45.970;12.646;2023-05-07T05:41:46;6.15;;;4.45;;
78960;SDS011;68362;45.970;12.646;2023-05-07T05:42:49;7.05;;;4.15;;
78960;SDS011;68362;45.970;12.646;2023-05-07T05:43:50;6.88;;;4.95;;
78960;SDS011;68362;45.970;12.646;2023-05-07T05:44:53;6.50;;;5.03;;
78960;SDS011;68362;45.970;12.646;2023-05-07T05:45:55;5.70;;;4.50;;
78960;SDS011;68362;45.970;12.646;2023-05-07T05:48:00;6.15;;;4.20;;
78960;SDS011;68362;45.970;12.646;2023-05-07T05:49:03;5.70;;;4.65;;
78960;SDS011;68362;45.970;12.646;2023-05-07T05:50:05;5.13;;;4.45;;
78960;SDS011;68362;45.970;12.646;2023-05-07T05:51:08;4.80;;;4.00;;
78960;SDS011;68362;45.970;12.646;2023-05-07T05:52:11;4.57;;;4.05;;
78960;SDS011;68362;45.970;12.646;2023-05-07T05:53:15;4.68;;;4.20;;
78960;SDS011;68362;45.970;12.646;2023-05-07T05:54:17;4.80;;;3.95;;
78960;SDS011;68362;45.970;12.646;2023-05-07T05:55:19;6.22;;;3.95;;
78960;SDS011;68362;45.970;12.646;2023-05-07T05:56:21;4.90;;;4.25;;
78960;SDS011;68362;45.970;12.646;2023-05-07T05:57:24;5.32;;;4.30;;
78960;SDS011;68362;45.970;12.646;2023-05-07T05:58:29;6.43;;;4.50;;
78960;SDS011;68362;45.970;12.646;2023-05-07T05:59:31;4.95;;;4.15;;
78960;SDS011;68362;45.970;12.646;2023-05-07T06:00:33;4.60;;;4.10;;
78960;SDS011;68362;45.970;12.646;2023-05-07T06:01:35;4.13;;;3.72;;
78960;SDS011;68362;45.970;12.646;2023-05-07T06:02:37;5.53;;;4.43;;
78960;SDS011;68362;45.970;12.646;2023-05-07T06:03:39;5.82;;;3.97;;
78960;SDS011;68362;45.970;12.646;2023-05-07T06:04:41;4.63;;;4.07;;
78960;SDS011;68362;45.970;12.646;2023-05-07T06:06:46;6.40;;;4.00;;
78960;SDS011;68362;45.970;12.646;2023-05-07T06:07:48;6.88;;;4.20;;
78960;SDS011;68362;45.970;12.646;2023-05-07T06:08:50;5.10;;;4.32;;
78960;SDS011;68362;45.970;12.646;2023-05-07T06:09:52;4.25;;;3.60;;
78960;SDS011;68362;45.970;12.646;2023-05-07T06:10:54;7.30;;;4.05;;
78960;SDS011;68362;45.970;12.646;2023-05-07T06:11:56;5.25;;;4.60;;
78960;SDS011;68362;45.970;12.646;2023-05-07T06:13:01;5.30;;;4.10;;
78960;SDS011;68362;45.970;12.646;2023-05-07T06:14:03;5.10;;;4.28;;
78960;SDS011;68362;45.970;12.646;2023-05-07T06:15:05;4.65;;;4.25;;
78960;SDS011;68362;45.970;12.646;2023-05-07T06:16:07;4.68;;;4.00;;
78960;SDS011;68362;45.970;12.646;2023-05-07T06:17:09;5.28;;;3.83;;
78960;SDS011;68362;45.970;12.646;2023-05-07T06:18:12;6.13;;;4.60;;
78960;SDS011;68362;45.970;12.646;2023-05-07T06:19:14;5.15;;;4.22;;
78960;SDS011;68362;45.970;12.646;2023-05-07T06:20:16;5.10;;;4.60;;
78960;SDS011;68362;45.970;12.646;2023-05-07T06:21:19;5.47;;;3.95;;
78960;SDS011;68362;45.970;12.646;2023-05-07T06:22:21;5.43;;;4.70;;